Time;durP1;ratioP1;P1;durP2;ratioP2;P2;SDS_P1;SDS_P2;PMS_P1;PMS_P2;Temp;Humidity;BMP_temperature;BMP_pressure;BME280_temperature;BME280_humidity;BME280_pressure;Samples;Min_cycle;Max_cycle;Signal;HPM_P1;HPM_P2
2022/01/15 00:04:14;;;;;;;13.93;3.42;;;;;;;6.79;100.00;103172.91;10402487;28;20064;-66
2022/01/15 00:09:38;;;;;;;14.02;3.65;;;;;;;6.75;100.00;103171.22;10403773;28;20568;-66
2022/01/15 00:15:00;;;;;;;12.63;4.32;;;;;;;6.63;100.00;103161.88;10372193;28;20405;-66
2022/01/15 00:20:23;;;;;;;13.82;4.65;;;;;;;6.51;100.00;103149.06;10387839;28;20395;-66
2022/01/15 00:25:45;;;;;;;20.55;5.45;;;;;;;6.38;100.00;103148.34;10408282;28;20057;-66
2022/01/15 00:31:07;;;;;;;24.33;5.95;;;;;;;6.38;100.00;103148.34;10393446;28;20503;-67
2022/01/15 00:36:29;;;;;;;14.30;5.57;;;;;;;6.40;100.00;103150.94;10374471;28;20184;-65
2022/01/15 00:41:50;;;;;;;17.27;5.22;;;;;;;6.35;100.00;103142.34;10374871;28;20080;-65
2022/01/15 00:47:12;;;;;;;123.90;7.15;;;;;;;6.26;100.00;103147.63;10374344;28;20092;-66
2022/01/15 00:52:34;;;;;;;44.60;6.68;;;;;;;6.27;100.00;103137.22;10373986;28;20513;-66
2022/01/15 00:57:56;;;;;;;49.60;5.53;;;;;;;6.27;100.00;103134.63;10388831;28;20528;-67
2022/01/15 01:03:18;;;;;;;42.47;6.00;;;;;;;6.29;100.00;103127.72;10393848;28;20486;-66
2022/01/15 01:08:39;;;;;;;57.95;5.90;;;;;;;6.00;100.00;103123.69;10390447;28;20076;-66
2022/01/15 01:25:06;;;;;;;50.38;5.90;;;;;;;6.10;100.00;103096.84;10401016;28;20217;-66
2022/01/15 01:30:34;;;;;;;38.70;6.10;;;;;;;6.12;100.00;103095.09;10418621;28;20056;-66
2022/01/15 01:36:11;;;;;;;22.58;6.22;;;;;;;6.09;100.00;103082.19;10419797;28;20466;-66
2022/01/15 01:41:37;;;;;;;27.05;5.70;;;;;;;6.24;100.00;103082.88;10382938;28;20569;-66
2022/01/15 01:47:05;;;;;;;36.72;5.13;;;;;;;6.15;100.00;103085.56;10396818;28;20050;-66
2022/01/15 01:52:27;;;;;;;51.53;5.78;;;;;;;6.09;100.00;103090.81;10404829;28;20054;-66
2022/01/15 01:57:51;;;;;;;29.20;6.10;;;;;;;6.10;100.00;103078.72;10408382;28;20049;-66
2022/01/15 02:03:13;;;;;;;21.92;5.97;;;;;;;6.15;100.00;103082.09;10387075;28;20054;-66
2022/01/15 02:08:35;;;;;;;16.80;5.75;;;;;;;6.15;100.00;103082.09;10371390;28;20056;-66
2022/01/15 02:13:57;;;;;;;9.60;5.32;;;;;;;6.05;100.00;103075.31;10409891;28;20045;-66
2022/01/15 02:19:19;;;;;;;16.02;5.70;;;;;;;6.13;100.00;103065.72;10429173;28;20042;-67
2022/01/15 02:24:41;;;;;;;12.35;5.18;;;;;;;6.21;100.00;103048.41;10366478;28;20049;-67
2022/01/15 02:30:04;;;;;;;12.32;5.38;;;;;;;6.23;100.00;103036.28;10393616;28;20057;-66
2022/01/15 02:35:25;;;;;;;10.73;5.78;;;;;;;6.29;100.00;103038.78;10386203;28;20058;-67
2022/01/15 02:40:48;;;;;;;15.38;5.43;;;;;;;6.15;100.00;103035.50;10369268;28;20042;-67
2022/01/15 02:51:42;;;;;;;14.15;6.03;;;;;;;6.17;100.00;103029.47;10394429;28;20107;-66
2022/01/15 02:57:06;;;;;;;12.88;6.57;;;;;;;6.26;100.00;103007.78;10394546;28;20058;-67
2022/01/15 03:02:31;;;;;;;19.15;7.13;;;;;;;6.26;100.00;103023.31;10397759;28;20064;-67
2022/01/15 03:07:53;;;;;;;13.68;6.60;;;;;;;6.41;100.00;103012.75;10400173;28;20053;-66
2022/01/15 03:13:15;;;;;;;17.58;7.45;;;;;;;6.44;100.00;103010.13;10389334;28;20510;-67
2022/01/15 03:18:36;;;;;;;24.33;7.47;;;;;;;6.42;100.00;103010.16;10370933;28;20057;-67
2022/01/15 03:23:58;;;;;;;25.23;8.60;;;;;;;6.13;100.00;102999.28;10384803;28;20056;-66
2022/01/15 03:29:19;;;;;;;26.30;9.65;;;;;;;6.28;100.00;102995.63;10372205;28;20046;-66
2022/01/15 03:34:41;;;;;;;27.25;11.27;;;;;;;6.35;100.00;102987.78;10390578;28;20053;-66
2022/01/15 03:40:04;;;;;;;16.27;8.55;;;;;;;6.41;100.00;102981.66;10396502;28;20498;-67
2022/01/15 03:45:25;;;;;;;19.27;8.43;;;;;;;6.35;100.00;102981.75;10390380;28;20050;-67
2022/01/15 03:50:47;;;;;;;24.20;9.40;;;;;;;6.31;100.00;102974.88;10393106;28;20050;-67
2022/01/15 03:56:09;;;;;;;17.95;8.43;;;;;;;6.30;100.00;102988.72;10415650;28;20049;-66
2022/01/15 04:01:30;;;;;;;17.00;8.48;;;;;;;6.43;100.00;102995.44;10384335;28;20052;-67
2022/01/15 04:06:52;;;;;;;17.35;8.77;;;;;;;6.35;100.00;102998.13;10391448;28;20064;-66
2022/01/15 04:12:14;;;;;;;19.85;9.02;;;;;;;6.25;100.00;102990.53;10374894;28;20054;-67
2022/01/15 04:17:36;;;;;;;27.60;9.70;;;;;;;6.16;100.00;102986.31;10392278;28;20045;-67
2022/01/15 04:22:57;;;;;;;23.02;9.70;;;;;;;6.12;100.00;102981.16;10413206;28;20045;-66
2022/01/15 04:28:19;;;;;;;17.58;9.07;;;;;;;6.03;100.00;102978.69;10413932;28;20053;-67
2022/01/15 04:33:40;;;;;;;19.77;8.90;;;;;;;6.13;100.00;102985.47;10388228;28;20057;-66
2022/01/15 04:39:02;;;;;;;16.83;8.50;;;;;;;6.19;100.00;102980.22;10407304;28;20042;-66
2022/01/15 04:44:24;;;;;;;19.08;8.40;;;;;;;6.24;100.00;102983.63;10372799;28;20061;-65
2022/01/15 04:49:45;;;;;;;14.40;7.68;;;;;;;6.03;100.00;102978.69;10397799;28;20042;-65
2022/01/15 04:55:09;;;;;;;14.82;7.00;;;;;;;6.16;100.00;102969.91;10378394;28;20073;-65
2022/01/15 05:00:31;;;;;;;12.90;6.85;;;;;;;6.07;100.00;102975.22;10373051;28;20054;-67
2022/01/15 05:05:53;;;;;;;10.75;6.38;;;;;;;6.22;100.00;102970.69;10373020;28;20081;-69
2022/01/15 05:11:27;;;;;;;13.02;6.72;;;;;;;6.19;100.00;102978.47;10406211;28;20057;-65
2022/01/15 05:16:49;;;;;;;13.45;6.07;;;;;;;5.96;100.00;102982.25;10376364;28;20406;-66
2022/01/15 05:22:11;;;;;;;13.73;6.00;;;;;;;6.05;100.00;102966.59;10395718;28;20056;-65
2022/01/15 05:27:35;;;;;;;11.32;5.65;;;;;;;6.08;100.00;102961.38;10372101;28;20069;-66
2022/01/15 05:32:56;;;;;;;12.95;5.32;;;;;;;6.10;100.00;102959.66;10400068;28;20061;-65
2022/01/15 05:38:18;;;;;;;12.65;5.88;;;;;;;5.98;100.00;102955.47;10362590;28;20040;-65
2022/01/15 05:43:44;;;;;;;10.27;5.30;;;;;;;5.88;100.00;102948.69;10401735;28;20140;-65
2022/01/15 05:49:06;;;;;;;12.55;5.10;;;;;;;6.13;100.00;102954.41;10358056;28;20054;-65
2022/01/15 05:54:27;;;;;;;13.32;5.78;;;;;;;6.17;100.00;102961.25;10358406;28;20053;-65
2022/01/15 05:59:51;;;;;;;10.63;5.13;;;;;;;6.14;100.00;102946.63;10396863;28;20045;-65
2022/01/15 06:05:13;;;;;;;8.73;5.57;;;;;;;6.16;100.00;102949.19;10381775;28;20608;-65
2022/01/15 06:10:36;;;;;;;19.35;5.43;;;;;;;6.17;100.00;102950.91;10394395;28;20053;-66
2022/01/15 06:15:58;;;;;;;12.68;6.05;;;;;;;6.14;100.00;102933.69;10363236;28;20053;-66
2022/01/15 06:21:20;;;;;;;14.07;7.32;;;;;;;6.15;100.00;102947.47;10359669;28;20129;-66
2022/01/15 06:26:41;;;;;;;12.13;6.80;;;;;;;6.18;100.00;102947.44;10384659;28;20054;-66
2022/01/15 06:32:04;;;;;;;13.40;6.97;;;;;;;5.96;100.00;102925.31;10358249;28;20050;-65
2022/01/15 06:37:25;;;;;;;17.33;8.52;;;;;;;5.96;100.00;102930.47;10388706;28;20064;-65
2022/01/15 06:42:47;;;;;;;19.92;8.45;;;;;;;6.04;100.00;102944.16;10369605;28;20049;-65
2022/01/15 06:48:09;;;;;;;17.67;8.68;;;;;;;6.00;100.00;102929.53;10370923;28;20050;-64
2022/01/15 06:53:30;;;;;;;16.73;8.25;;;;;;;6.12;100.00;102937.16;10399122;28;20049;-68
2022/01/15 06:58:52;;;;;;;17.27;8.57;;;;;;;5.91;100.00;102933.09;10381260;28;20073;-68
2022/01/15 07:04:13;;;;;;;18.88;8.30;;;;;;;6.13;100.00;102928.50;10342282;28;20061;-66
2022/01/15 07:09:35;;;;;;;18.42;8.38;;;;;;;6.05;100.00;102930.34;10373975;28;20064;-66
2022/01/15 07:14:57;;;;;;;19.88;8.88;;;;;;;6.04;100.00;102913.09;10388962;28;20062;-66
2022/01/15 07:20:19;;;;;;;19.35;10.20;;;;;;;6.03;100.00;102922.63;10417681;28;20046;-65
2022/01/15 07:25:41;;;;;;;23.50;8.65;;;;;;;5.97;100.00;102916.63;10411292;28;20049;-65
2022/01/15 07:31:03;;;;;;;15.23;8.23;;;;;;;5.88;100.00;102922.81;10409738;28;20045;-66
2022/01/15 07:36:25;;;;;;;20.95;9.30;;;;;;;5.82;100.00;102914.25;10379134;28;20068;-65
2022/01/15 07:41:46;;;;;;;19.17;9.38;;;;;;;5.93;100.00;102909.81;10381533;28;20049;-68
2022/01/15 07:47:08;;;;;;;17.63;9.30;;;;;;;5.93;100.00;102897.72;10376637;28;20053;-66
2022/01/15 07:52:30;;;;;;;22.75;10.00;;;;;;;6.00;100.00;102901.06;10407948;28;20046;-67
2022/01/15 07:57:52;;;;;;;17.98;8.90;;;;;;;6.11;100.00;102907.84;10390004;28;20049;-65
2022/01/15 08:03:14;;;;;;;21.63;9.50;;;;;;;5.88;100.00;102916.75;10412811;28;20053;-65
2022/01/15 08:08:36;;;;;;;16.50;8.70;;;;;;;5.93;100.00;102909.81;10412705;28;20115;-66
2022/01/15 08:13:58;;;;;;;16.10;8.23;;;;;;;5.89;100.00;102913.31;10382136;28;20053;-67
2022/01/15 08:19:19;;;;;;;14.38;8.40;;;;;;;5.90;100.00;102915.00;10403627;28;20046;-66
2022/01/15 08:24:41;;;;;;;13.40;8.40;;;;;;;5.84;100.00;102912.50;10413598;28;20057;-66
2022/01/15 08:30:05;;;;;;;13.82;8.27;;;;;;;5.96;100.00;102908.03;10374794;28;20060;-67
2022/01/15 08:35:27;;;;;;;13.77;7.63;;;;;;;5.80;100.00;102916.00;10403411;28;20054;-66
2022/01/15 08:40:49;;;;;;;12.50;7.43;;;;;;;5.97;100.00;102922.69;10408385;28;20141;-66
2022/01/15 08:46:11;;;;;;;14.50;8.30;;;;;;;6.03;100.00;102926.94;10359802;28;20049;-66
2022/01/15 08:51:33;;;;;;;12.35;7.40;;;;;;;5.83;100.00;102921.13;10396422;28;20493;-68
2022/01/15 08:56:55;;;;;;;12.45;7.55;;;;;;;5.96;100.00;102930.47;10410425;28;20060;-68
2022/01/15 09:02:17;;;;;;;10.00;6.38;;;;;;;5.79;100.00;102925.47;10396184;28;20052;-68
2022/01/15 09:07:39;;;;;;;11.27;5.32;;;;;;;5.81;100.00;102925.50;10389622;28;20073;-67
2022/01/15 09:13:02;;;;;;;10.27;5.53;;;;;;;5.86;100.00;102909.03;10397815;28;20528;-68
2022/01/15 09:18:24;;;;;;;10.45;5.68;;;;;;;6.03;100.00;102895.88;10393716;28;20045;-67
2022/01/15 09:23:45;;;;;;;9.93;5.18;;;;;;;6.09;100.00;102890.63;10404586;28;20521;-66
2022/01/15 09:34:47;;;;;;;11.27;5.57;;;;;;;6.23;100.00;102867.97;10404309;28;20549;-66
2022/01/15 09:40:10;;;;;;;14.65;6.38;;;;;;;6.35;100.00;102865.22;10404713;28;20059;-66
2022/01/15 09:45:35;;;;;;;11.43;6.57;;;;;;;6.57;100.00;102858.81;10386991;28;20588;-66
2022/01/15 09:50:57;;;;;;;16.00;5.63;;;;;;;6.65;100.00;102856.97;10388273;28;20065;-65
2022/01/15 09:56:20;;;;;;;13.95;6.10;;;;;;;6.64;100.00;102853.50;10383034;28;20053;-66
2022/01/15 10:01:42;;;;;;;14.20;4.90;;;;;;;6.60;100.00;102848.41;10387410;28;20037;-65
2022/01/15 10:07:09;;;;;;;13.90;4.38;;;;;;;6.51;100.00;102849.41;10394039;28;20647;-65
2022/01/15 10:12:32;;;;;;;10.82;4.63;;;;;;;6.71;100.00;102847.34;10396349;28;20052;-65
2022/01/15 10:17:54;;;;;;;14.85;6.28;;;;;;;6.44;100.00;102846.94;10396525;28;20395;-65
2022/01/15 10:23:20;;;;;;;11.75;5.75;;;;;;;6.61;100.00;102847.53;10398376;28;20703;-66
2022/01/15 10:28:59;;;;;;;11.38;6.50;;;;;;;6.60;100.00;102846.69;10384619;28;20405;-65
2022/01/15 10:34:25;;;;;;;14.18;6.65;;;;;;;6.66;100.00;102849.16;10391394;28;20133;-67
2022/01/15 10:40:04;;;;;;;12.85;6.47;;;;;;;6.79;100.00;102846.34;10388575;28;20049;-66
2022/01/15 10:45:31;;;;;;;14.55;6.38;;;;;;;6.78;100.00;102849.81;10396710;28;20060;-66
2022/01/15 10:51:01;;;;;;;11.82;7.28;;;;;;;6.89;100.00;102840.13;10374360;28;20053;-67
2022/01/15 10:56:25;;;;;;;8.75;5.20;;;;;;;6.97;100.00;102838.25;10389500;28;20092;-66
2022/01/15 11:01:46;;;;;;;10.90;6.63;;;;;;;6.97;100.00;102833.09;10396699;28;21774;-67
2022/01/15 11:07:14;;;;;;;10.88;6.75;;;;;;;6.97;100.00;102825.31;10368622;28;20049;-67
2022/01/15 11:12:36;;;;;;;12.52;6.88;;;;;;;6.95;100.00;102814.09;10403452;28;20046;-66
2022/01/15 11:17:58;;;;;;;12.13;7.00;;;;;;;7.09;100.00;102803.47;10401608;28;20520;-66
2022/01/15 11:23:23;;;;;;;13.52;7.88;;;;;;;6.98;100.00;102801.09;10405612;28;20064;-67
2022/01/15 11:28:45;;;;;;;12.27;6.53;;;;;;;7.24;100.00;102783.28;10389661;28;20050;-66
2022/01/15 11:34:09;;;;;;;15.48;8.38;;;;;;;7.09;100.00;102788.78;10375239;28;20049;-66
2022/01/15 11:39:35;;;;;;;14.85;7.78;;;;;;;7.16;100.00;102785.16;10368491;28;20056;-67
2022/01/15 11:44:57;;;;;;;15.85;8.68;;;;;;;7.21;100.00;102767.78;10377127;28;20045;-67
2022/01/15 11:50:20;;;;;;;16.30;7.45;;;;;;;7.26;100.00;102749.53;10384369;28;20056;-67
2022/01/15 11:55:43;;;;;;;16.90;8.60;;;;;;;7.24;100.00;102757.34;10391495;28;20069;-67
2022/01/15 12:01:05;;;;;;;19.58;9.20;;;;;;;7.29;100.00;102760.69;10397291;28;20049;-67
2022/01/15 12:06:27;;;;;;;19.33;9.15;;;;;;;7.46;100.00;102758.59;10400797;28;20108;-67
2022/01/15 12:11:49;;;;;;;16.58;8.93;;;;;;;7.39;98.72;102741.47;10395016;28;20515;-66
2022/01/15 12:17:31;;;;;;;27.15;13.02;;;;;;;7.63;97.25;102735.75;10404855;28;20414;-66
2022/01/15 12:22:54;;;;;;;25.98;12.43;;;;;;;7.19;97.33;102727.22;10399098;28;20052;-66
2022/01/15 12:28:16;;;;;;;19.38;11.43;;;;;;;7.38;96.25;102720.72;10400360;28;20410;-66
2022/01/15 12:33:39;;;;;;;22.52;11.52;;;;;;;7.42;96.39;102707.69;10386429;28;20057;-66
2022/01/15 12:39:00;;;;;;;21.52;11.10;;;;;;;7.26;97.56;102714.09;10401926;28;20042;-66
2022/01/15 12:44:22;;;;;;;25.52;11.00;;;;;;;7.38;95.33;102699.97;10408120;28;20532;-66
2022/01/15 12:49:55;;;;;;;19.48;10.10;;;;;;;7.35;95.77;102703.50;10412816;28;20049;-65
2022/01/15 12:55:17;;;;;;;20.05;10.70;;;;;;;7.50;95.88;102687.59;10410272;28;20057;-66
2022/01/15 13:00:39;;;;;;;21.45;11.35;;;;;;;7.43;96.27;102691.22;10402520;28;20036;-66
2022/01/15 13:06:02;;;;;;;22.80;11.93;;;;;;;7.52;95.08;102701.41;10382758;28;20046;-65
2022/01/15 13:11:27;;;;;;;22.65;12.20;;;;;;;7.42;95.82;102691.25;10403471;28;20076;-65
2022/01/15 13:16:49;;;;;;;23.98;12.43;;;;;;;7.46;96.03;102677.34;10392865;28;20072;-65
2022/01/15 13:22:11;;;;;;;22.88;13.00;;;;;;;7.32;94.67;102675.03;10400417;28;20625;-66
2022/01/15 13:27:33;;;;;;;21.35;12.40;;;;;;;7.42;97.25;102666.19;10398483;28;20053;-65
2022/01/15 13:33:32;;;;;;;24.75;12.02;;;;;;;7.39;98.16;102653.28;10421911;28;20735;-65
2022/01/15 13:38:53;;;;;;;20.08;11.98;;;;;;;7.51;95.63;102634.81;10411139;28;20046;-63
2022/01/15 13:44:16;;;;;;;16.13;10.30;;;;;;;7.32;95.19;102630.94;10391048;28;20483;-63
2022/01/15 13:55:28;;;;;;;13.55;8.70;;;;;;;7.13;96.69;102616.66;10404129;28;20477;-63
2022/01/15 14:00:49;;;;;;;20.88;11.38;;;;;;;6.94;93.49;102602.41;10393685;28;20049;-63
2022/01/15 14:06:11;;;;;;;18.00;9.82;;;;;;;7.03;94.30;102599.59;10384353;28;20046;-63
2022/01/15 14:11:33;;;;;;;21.70;11.02;;;;;;;7.10;95.59;102580.44;10397279;28;20045;-64
2022/01/15 14:16:58;;;;;;;19.23;11.32;;;;;;;7.00;95.81;102573.75;10392689;28;20049;-63
2022/01/15 14:22:23;;;;;;;23.90;13.75;;;;;;;6.99;95.07;102579.81;10387700;28;20398;-64
2022/01/15 14:27:46;;;;;;;28.55;16.90;;;;;;;7.00;95.19;102576.34;10389356;28;20057;-64
2022/01/15 14:33:08;;;;;;;29.13;16.58;;;;;;;6.99;95.13;102572.03;10414645;28;20502;-64
2022/01/15 14:38:30;;;;;;;31.52;18.58;;;;;;;7.11;95.45;102563.13;10396748;28;20457;-63
2022/01/15 14:43:51;;;;;;;28.45;17.83;;;;;;;6.98;98.17;102561.72;10406485;28;20045;-66
2022/01/15 14:49:13;;;;;;;29.10;17.55;;;;;;;7.01;96.51;102546.09;10395046;28;20046;-65
2022/01/15 14:54:34;;;;;;;29.50;17.40;;;;;;;6.94;97.14;102537.59;10386955;28;20053;-64
2022/01/15 14:59:56;;;;;;;25.38;15.27;;;;;;;6.98;97.69;102551.34;10406526;28;20132;-65
2022/01/15 15:05:18;;;;;;;27.30;15.35;;;;;;;6.98;98.12;102540.97;10407203;28;20053;-65
2022/01/15 15:10:39;;;;;;;27.60;15.90;;;;;;;6.91;97.89;102545.44;10405309;28;20383;-65
2022/01/15 15:16:01;;;;;;;28.33;15.73;;;;;;;7.09;96.86;102544.16;10398407;28;20387;-65
2022/01/15 15:21:23;;;;;;;34.70;19.50;;;;;;;7.03;99.96;102537.38;10409058;28;20414;-66
2022/01/15 15:26:45;;;;;;;37.28;21.98;;;;;;;6.96;97.49;102533.25;10408785;28;20494;-66
2022/01/15 15:32:08;;;;;;;35.70;20.40;;;;;;;7.00;97.55;102524.50;10409013;28;20064;-66
2022/01/15 15:37:32;;;;;;;27.83;15.70;;;;;;;6.96;97.92;102522.88;10380086;28;20053;-66
2022/01/15 15:42:53;;;;;;;26.75;14.85;;;;;;;6.84;95.70;102530.91;10402779;28;20420;-65
2022/01/15 15:48:15;;;;;;;47.88;24.40;;;;;;;6.83;95.62;102525.75;10378796;28;20053;-64
2022/01/15 15:53:37;;;;;;;48.78;27.60;;;;;;;6.82;96.63;102524.94;10414319;28;20560;-66
2022/01/15 15:58:59;;;;;;;53.80;27.40;;;;;;;6.74;97.41;102525.97;10416455;28;20049;-67
2022/01/15 16:04:20;;;;;;;40.38;22.90;;;;;;;6.81;97.36;102530.13;10414228;28;20059;-65
2022/01/15 16:09:42;;;;;;;39.95;23.70;;;;;;;6.76;98.46;102530.22;10409147;28;20052;-66
2022/01/15 16:15:04;;;;;;;45.40;26.60;;;;;;;6.59;99.04;102531.50;10394817;28;20049;-65
2022/01/15 16:20:26;;;;;;;46.72;28.05;;;;;;;6.70;99.27;102529.50;10388986;28;20049;-67
2022/01/15 16:25:48;;;;;;;56.42;31.35;;;;;;;6.72;97.98;102523.41;10392144;28;20053;-65
2022/01/15 16:31:10;;;;;;;48.58;28.73;;;;;;;6.69;97.22;102523.47;10382845;28;20049;-67
2022/01/15 16:36:33;;;;;;;47.92;28.20;;;;;;;6.60;97.14;102515.06;10410336;28;20049;-64
2022/01/15 16:41:55;;;;;;;50.50;29.90;;;;;;;6.50;97.17;102518.72;10399880;28;20045;-64
2022/01/15 16:47:16;;;;;;;49.95;29.42;;;;;;;6.51;97.23;102510.06;10399468;28;20516;-65
2022/01/15 16:52:43;;;;;;;45.47;26.42;;;;;;;6.58;98.58;102508.19;10388009;28;20052;-66
2022/01/15 16:58:05;;;;;;;44.65;26.70;;;;;;;6.45;99.56;102507.63;10395520;28;20050;-64
2022/01/15 17:03:30;;;;;;;35.40;21.65;;;;;;;6.28;98.96;102501.06;10388039;28;20038;-64
2022/01/15 17:08:52;;;;;;;30.45;18.50;;;;;;;6.32;99.25;102494.94;10391716;28;20081;-65
2022/01/15 17:14:14;;;;;;;29.02;18.17;;;;;;;6.35;100.00;102490.53;10373543;28;20045;-64
2022/01/15 17:19:36;;;;;;;25.00;15.77;;;;;;;6.37;99.72;102487.94;10401742;28;20049;-64
2022/01/15 17:24:58;;;;;;;26.95;16.52;;;;;;;6.35;100.00;102484.53;10401175;28;20057;-64
2022/01/15 17:30:20;;;;;;;30.05;17.75;;;;;;;6.37;100.00;102475.81;10384476;28;20491;-64
2022/01/15 17:35:41;;;;;;;27.48;16.85;;;;;;;6.55;99.66;102472.00;10387962;28;20064;-64
2022/01/15 17:41:03;;;;;;;30.95;18.90;;;;;;;6.22;100.00;102464.94;10386240;28;20053;-65
2022/01/15 17:46:25;;;;;;;32.88;19.80;;;;;;;6.35;100.00;102461.22;10383877;28;20491;-64
2022/01/15 17:51:46;;;;;;;30.98;19.02;;;;;;;6.30;100.00;102460.44;10412523;28;20084;-64
2022/01/15 17:57:08;;;;;;;30.55;18.83;;;;;;;6.38;99.97;102446.47;10423883;28;20061;-65
2022/01/15 18:02:29;;;;;;;21.98;14.45;;;;;;;6.26;100.00;102448.47;10413508;28;20042;-64
2022/01/15 18:07:51;;;;;;;25.92;14.73;;;;;;;6.28;100.00;102451.84;10425836;28;20140;-64
2022/01/15 18:13:13;;;;;;;24.30;15.30;;;;;;;6.20;100.00;102448.59;10395670;28;20141;-64
2022/01/15 18:18:35;;;;;;;23.73;15.30;;;;;;;6.23;100.00;102448.53;10391553;28;20046;-64
2022/01/15 18:23:57;;;;;;;27.83;14.82;;;;;;;6.12;100.00;102445.28;10381599;28;20033;-64
2022/01/15 18:29:20;;;;;;;22.27;14.48;;;;;;;6.19;100.00;102444.28;10410062;28;20068;-64
2022/01/15 18:34:42;;;;;;;25.48;14.65;;;;;;;6.08;100.00;102428.97;10409747;28;20045;-64
2022/01/15 18:40:05;;;;;;;37.42;23.98;;;;;;;5.96;100.00;102428.41;10402377;28;20046;-65
2022/01/15 18:45:27;;;;;;;41.65;26.30;;;;;;;6.00;100.00;102427.44;10423123;28;20518;-64
2022/01/15 18:50:49;;;;;;;34.55;20.77;;;;;;;5.96;100.00;102424.06;10377581;28;20091;-64
2022/01/15 18:56:10;;;;;;;28.35;16.30;;;;;;;5.82;100.00;102431.25;10391011;28;20068;-64
2022/01/15 19:01:32;;;;;;;24.40;15.65;;;;;;;6.00;100.00;102461.06;10377885;28;20057;-64
2022/01/15 19:06:55;;;;;;;23.90;15.40;;;;;;;5.85;100.00;102539.88;10387318;28;20062;-65
2022/01/15 19:12:20;;;;;;;22.48;15.20;;;;;;;6.03;99.34;102510.19;10381399;28;20382;-65
2022/01/15 19:17:42;;;;;;;24.00;15.82;;;;;;;5.87;100.00;102465.66;10385716;28;20049;-64
2022/01/15 19:23:04;;;;;;;22.95;16.17;;;;;;;5.73;100.00;102402.06;10395451;28;20057;-64
2022/01/15 19:28:26;;;;;;;24.33;17.98;;;;;;;5.52;100.00;102312.00;10391738;28;20041;-65
2022/01/15 19:33:48;;;;;;;36.30;22.60;;;;;;;5.76;100.00;102293.38;10413142;28;20050;-64
2022/01/15 19:39:09;;;;;;;40.35;24.40;;;;;;;5.63;100.00;102351.41;10392809;28;20041;-64
2022/01/15 19:44:31;;;;;;;41.13;25.73;;;;;;;5.74;100.00;102380.50;10416547;28;20045;-64
2022/01/15 19:49:52;;;;;;;39.08;24.80;;;;;;;5.54;100.00;102367.09;10406796;28;20049;-64
2022/01/15 19:55:34;;;;;;;44.88;27.33;;;;;;;5.65;100.00;102375.53;10399188;28;20041;-64
2022/01/15 20:00:56;;;;;;;43.63;26.80;;;;;;;5.67;100.00;102342.72;10413980;28;20053;-65
2022/01/15 20:06:18;;;;;;;40.10;24.98;;;;;;;5.55;100.00;102319.66;10385429;28;20041;-64
2022/01/15 20:11:40;;;;;;;33.80;22.60;;;;;;;5.44;100.00;102303.53;10391580;28;20669;-64
2022/01/15 20:17:21;;;;;;;30.20;21.45;;;;;;;5.43;100.00;102352.69;10403062;28;20064;-64
2022/01/15 20:22:43;;;;;;;32.97;22.45;;;;;;;5.51;100.00;102325.81;10396887;28;20421;-64
2022/01/15 20:28:04;;;;;;;34.63;22.52;;;;;;;5.34;100.00;102314.94;10407974;28;20053;-64
2022/01/15 20:33:26;;;;;;;35.45;23.15;;;;;;;5.42;100.00;102314.78;10402418;28;20049;-63
2022/01/15 20:38:48;;;;;;;29.77;20.25;;;;;;;5.41;100.00;102342.38;10395128;28;20083;-63
2022/01/15 20:44:10;;;;;;;29.15;19.75;;;;;;;5.51;100.00;102330.97;10406747;28;20057;-64
2022/01/15 20:49:32;;;;;;;34.65;23.17;;;;;;;5.19;100.00;102315.22;10400805;28;20071;-64
2022/01/15 20:54:53;;;;;;;31.15;20.95;;;;;;;5.27;100.00;102309.91;10405253;28;20429;-64
2022/01/15 21:00:20;;;;;;;33.55;20.15;;;;;;;5.15;100.00;102287.72;10371062;28;20046;-64
2022/01/15 21:05:42;;;;;;;34.42;19.10;;;;;;;5.25;100.00;102265.16;10372538;28;20053;-63
2022/01/15 21:11:03;;;;;;;26.77;18.70;;;;;;;5.16;100.00;102265.34;10401347;28;20049;-63
2022/01/15 21:16:25;;;;;;;27.10;18.58;;;;;;;5.12;100.00;102280.03;10378509;28;20414;-64
2022/01/15 21:21:46;;;;;;;24.50;16.92;;;;;;;4.96;100.00;102262.28;10392016;28;20049;-64
2022/01/15 21:27:08;;;;;;;27.80;17.52;;;;;;;5.11;100.00;102262.81;10398824;28;20773;-64
2022/01/15 21:32:30;;;;;;;27.45;18.77;;;;;;;5.05;100.00;102262.09;10369166;28;20056;-63
2022/01/15 21:37:54;;;;;;;24.95;17.40;;;;;;;5.06;100.00;102253.47;10377265;28;20064;-64
2022/01/15 21:43:16;;;;;;;30.27;19.15;;;;;;;4.79;100.00;102265.19;10359891;28;20066;-64
2022/01/15 21:48:38;;;;;;;26.58;17.58;;;;;;;4.93;100.00;102263.19;10381847;28;20103;-64
2022/01/15 21:53:59;;;;;;;26.90;18.27;;;;;;;4.82;100.00;102244.44;10383288;28;20056;-64
2022/01/15 21:59:21;;;;;;;31.38;20.20;;;;;;;4.78;100.00;102242.81;10393617;28;20046;-64
2022/01/15 22:04:43;;;;;;;30.75;20.13;;;;;;;4.77;100.00;102246.28;10414854;28;20065;-64
2022/01/15 22:10:09;;;;;;;30.58;19.50;;;;;;;4.70;100.00;102237.78;10388267;28;20046;-64
2022/01/15 22:15:32;;;;;;;31.20;19.83;;;;;;;4.80;100.00;102241.03;10393254;28;20228;-63
2022/01/15 22:20:53;;;;;;;29.23;18.95;;;;;;;4.78;100.00;102242.81;10386967;28;20462;-63
2022/01/15 22:26:35;;;;;;;30.00;18.52;;;;;;;4.97;100.00;102233.81;10386150;28;20041;-63
2022/01/15 22:31:56;;;;;;;46.13;25.65;;;;;;;4.78;100.00;102211.81;10394019;28;20060;-64
2022/01/15 22:37:18;;;;;;;59.40;29.27;;;;;;;4.61;100.00;102201.81;10404027;28;20060;-63
2022/01/15 22:42:40;;;;;;;61.80;31.25;;;;;;;4.66;100.00;102206.03;10398603;28;20049;-63
2022/01/15 22:48:04;;;;;;;62.20;33.00;;;;;;;4.72;100.00;102199.88;10382616;28;20056;-64
2022/01/15 22:53:26;;;;;;;58.50;29.73;;;;;;;4.72;100.00;102191.25;10375573;28;20426;-63
2022/01/15 22:58:48;;;;;;;52.33;28.70;;;;;;;4.59;100.00;102182.94;10404734;28;20049;-64
2022/01/15 23:04:11;;;;;;;51.15;26.80;;;;;;;4.54;100.00;102169.25;10398214;28;20049;-63
2022/01/15 23:09:32;;;;;;;49.97;26.17;;;;;;;4.61;100.00;102139.84;10393020;28;20062;-64
2022/01/15 23:15:07;;;;;;;38.35;22.45;;;;;;;4.56;100.00;102159.75;10398284;28;20093;-64
2022/01/15 23:20:28;;;;;;;38.58;21.38;;;;;;;4.52;100.00;102160.66;10405924;28;20835;-65
2022/01/15 23:25:55;;;;;;;39.85;22.63;;;;;;;4.40;100.00;102150.56;10392000;28;20057;-63
2022/01/15 23:31:17;;;;;;;38.30;22.98;;;;;;;4.49;100.00;102151.25;10369617;28;20092;-64
2022/01/15 23:36:39;;;;;;;37.33;21.38;;;;;;;4.29;100.00;102144.75;10406455;28;20050;-64
2022/01/15 23:42:00;;;;;;;39.20;22.08;;;;;;;4.52;100.00;102150.34;10401532;28;20588;-63
2022/01/15 23:47:41;;;;;;;40.92;21.08;;;;;;;4.53;100.00;102123.66;10365876;28;20148;-64
2022/01/15 23:53:04;;;;;;;35.65;19.02;;;;;;;4.49;100.00;102127.19;10367108;28;20372;-63
2022/01/15 23:58:25;;;;;;;41.65;22.58;;;;;;;4.30;100.00;102120.66;10407489;28;20061;-64
